sensor_id;sensor_type;location;lat;lon;timestamp;pressure;altitude;pressure_sealevel;temperature;humidity
57248;BME280;55809;46.618;10.764;2023-06-22T00:00:12;93454.72;;;20.50;75.71
57248;BME280;55809;46.618;10.764;2023-06-22T00:02:39;93441.84;;;20.38;75.43
57248;BME280;55809;46.618;10.764;2023-06-22T00:05:06;93463.75;;;20.51;75.95
57248;BME280;55809;46.618;10.764;2023-06-22T00:07:33;93461.31;;;20.31;76.28
57248;BME280;55809;46.618;10.764;2023-06-22T00:10:00;93439.00;;;20.20;76.17
57248;BME280;55809;46.618;10.764;2023-06-22T00:12:29;93458.75;;;20.36;76.30
57248;BME280;55809;46.618;10.764;2023-06-22T00:14:57;93460.91;;;20.42;76.16
57248;BME280;55809;46.618;10.764;2023-06-22T00:17:24;93453.44;;;20.42;75.71
57248;BME280;55809;46.618;10.764;2023-06-22T00:19:51;93461.94;;;20.57;75.86
57248;BME280;55809;46.618;10.764;2023-06-22T00:22:20;93466.84;;;20.40;76.62
57248;BME280;55809;46.618;10.764;2023-06-22T00:24:53;93466.41;;;20.20;77.16
57248;BME280;55809;46.618;10.764;2023-06-22T00:27:20;93471.94;;;20.07;77.81
57248;BME280;55809;46.618;10.764;2023-06-22T00:29:49;93462.53;;;20.08;77.81
57248;BME280;55809;46.618;10.764;2023-06-22T00:32:16;93460.09;;;20.10;77.62
57248;BME280;55809;46.618;10.764;2023-06-22T00:34:44;93454.63;;;19.88;77.90
57248;BME280;55809;46.618;10.764;2023-06-22T00:37:11;93456.66;;;19.75;78.40
57248;BME280;55809;46.618;10.764;2023-06-22T00:39:38;93463.66;;;19.76;78.53
57248;BME280;55809;46.618;10.764;2023-06-22T00:42:05;93461.53;;;19.80;78.83
57248;BME280;55809;46.618;10.764;2023-06-22T00:44:32;93438.09;;;19.79;77.84
57248;BME280;55809;46.618;10.764;2023-06-22T00:47:01;93467.69;;;20.06;77.83
57248;BME280;55809;46.618;10.764;2023-06-22T00:49:28;93469.72;;;20.14;77.09
57248;BME280;55809;46.618;10.764;2023-06-22T00:51:56;93471.00;;;20.23;76.72
57248;BME280;55809;46.618;10.764;2023-06-22T00:54:24;93440.91;;;20.10;76.75
57248;BME280;55809;46.618;10.764;2023-06-22T00:56:53;93464.19;;;20.27;76.69
57248;BME280;55809;46.618;10.764;2023-06-22T00:59:21;93458.94;;;20.20;76.37
57248;BME280;55809;46.618;10.764;2023-06-22T01:01:48;93471.06;;;20.32;76.49
57248;BME280;55809;46.618;10.764;2023-06-22T01:04:17;93455.97;;;20.27;76.05
57248;BME280;55809;46.618;10.764;2023-06-22T01:06:58;93476.28;;;20.39;76.14
57248;BME280;55809;46.618;10.764;2023-06-22T01:09:32;93470.38;;;20.41;75.92
57248;BME280;55809;46.618;10.764;2023-06-22T01:12:06;93470.94;;;20.35;76.47
57248;BME280;55809;46.618;10.764;2023-06-22T01:14:38;93472.28;;;20.31;76.49
57248;BME280;55809;46.618;10.764;2023-06-22T01:17:07;93450.16;;;20.25;76.72
57248;BME280;55809;46.618;10.764;2023-06-22T01:19:39;93477.50;;;20.38;76.51
57248;BME280;55809;46.618;10.764;2023-06-22T01:22:13;93474.28;;;20.39;76.17
57248;BME280;55809;46.618;10.764;2023-06-22T01:24:48;93457.00;;;20.21;76.63
57248;BME280;55809;46.618;10.764;2023-06-22T01:27:32;93472.59;;;20.33;76.48
57248;BME280;55809;46.618;10.764;2023-06-22T01:30:02;93472.16;;;20.34;76.86
57248;BME280;55809;46.618;10.764;2023-06-22T01:32:32;93461.94;;;20.35;76.58
57248;BME280;55809;46.618;10.764;2023-06-22T01:35:01;93430.84;;;20.07;77.19
57248;BME280;55809;46.618;10.764;2023-06-22T01:37:30;93474.56;;;20.32;77.31
57248;BME280;55809;46.618;10.764;2023-06-22T01:39:59;93441.69;;;20.10;77.00
57248;BME280;55809;46.618;10.764;2023-06-22T01:42:26;93460.50;;;20.21;77.06
57248;BME280;55809;46.618;10.764;2023-06-22T01:44:54;93474.56;;;20.32;77.27
57248;BME280;55809;46.618;10.764;2023-06-22T01:47:24;93476.88;;;20.34;77.10
57248;BME280;55809;46.618;10.764;2023-06-22T01:49:53;93481.31;;;20.41;75.96
57248;BME280;55809;46.618;10.764;2023-06-22T01:52:20;93482.97;;;20.38;75.77
57248;BME280;55809;46.618;10.764;2023-06-22T01:54:47;93485.84;;;20.34;75.86
57248;BME280;55809;46.618;10.764;2023-06-22T01:57:15;93479.16;;;20.35;75.99
57248;BME280;55809;46.618;10.764;2023-06-22T01:59:48;93470.72;;;20.30;76.15
57248;BME280;55809;46.618;10.764;2023-06-22T02:02:20;93478.78;;;20.24;76.03
57248;BME280;55809;46.618;10.764;2023-06-22T02:04:57;93484.69;;;20.23;76.04
57248;BME280;55809;46.618;10.764;2023-06-22T02:07:30;93486.81;;;20.19;76.19
57248;BME280;55809;46.618;10.764;2023-06-22T02:09:59;93451.94;;;19.97;75.62
57248;BME280;55809;46.618;10.764;2023-06-22T02:12:28;93481.66;;;20.21;75.64
57248;BME280;55809;46.618;10.764;2023-06-22T02:14:57;93484.13;;;20.28;75.56
57248;BME280;55809;46.618;10.764;2023-06-22T02:17:26;93499.81;;;20.27;75.92
57248;BME280;55809;46.618;10.764;2023-06-22T02:19:55;93497.97;;;20.24;76.10
57248;BME280;55809;46.618;10.764;2023-06-22T02:22:22;93494.41;;;20.14;76.30
57248;BME280;55809;46.618;10.764;2023-06-22T02:24:49;93511.88;;;20.08;76.34
57248;BME280;55809;46.618;10.764;2023-06-22T02:27:16;93505.97;;;19.97;76.51
57248;BME280;55809;46.618;10.764;2023-06-22T02:29:43;93507.06;;;19.99;76.50
57248;BME280;55809;46.618;10.764;2023-06-22T02:32:10;93502.97;;;20.04;76.29
57248;BME280;55809;46.618;10.764;2023-06-22T02:34:37;93501.06;;;20.13;75.79
57248;BME280;55809;46.618;10.764;2023-06-22T02:37:05;93489.81;;;20.11;75.56
57248;BME280;55809;46.618;10.764;2023-06-22T02:39:32;93473.28;;;20.02;74.92
57248;BME280;55809;46.618;10.764;2023-06-22T02:42:00;93481.31;;;19.97;74.99
57248;BME280;55809;46.618;10.764;2023-06-22T02:44:27;93525.66;;;20.17;74.99
57248;BME280;55809;46.618;10.764;2023-06-22T02:46:54;93526.66;;;20.10;75.12
57248;BME280;55809;46.618;10.764;2023-06-22T02:49:21;93527.09;;;20.09;74.64
57248;BME280;55809;46.618;10.764;2023-06-22T02:51:48;93539.00;;;20.15;74.93
57248;BME280;55809;46.618;10.764;2023-06-22T02:54:17;93477.34;;;19.76;75.09
57248;BME280;55809;46.618;10.764;2023-06-22T02:56:44;93538.38;;;20.11;75.52
57248;BME280;55809;46.618;10.764;2023-06-22T02:59:11;93541.88;;;20.11;75.34
57248;BME280;55809;46.618;10.764;2023-06-22T03:01:38;93553.28;;;20.10;75.74
57248;BME280;55809;46.618;10.764;2023-06-22T03:04:06;93551.13;;;20.05;75.97
57248;BME280;55809;46.618;10.764;2023-06-22T03:06:33;93520.59;;;19.81;76.10
57248;BME280;55809;46.618;10.764;2023-06-22T03:09:03;93532.34;;;19.81;76.38
57248;BME280;55809;46.618;10.764;2023-06-22T03:11:33;93548.94;;;20.00;75.89
57248;BME280;55809;46.618;10.764;2023-06-22T03:14:01;93554.41;;;20.00;75.69
57248;BME280;55809;46.618;10.764;2023-06-22T03:16:28;93552.44;;;20.00;75.88
57248;BME280;55809;46.618;10.764;2023-06-22T03:18:55;93553.66;;;19.99;76.17
57248;BME280;55809;46.618;10.764;2023-06-22T03:21:23;93552.69;;;19.93;76.47
57248;BME280;55809;46.618;10.764;2023-06-22T03:23:50;93552.91;;;19.86;76.89
57248;BME280;55809;46.618;10.764;2023-06-22T03:26:18;93555.31;;;19.84;77.33
57248;BME280;55809;46.618;10.764;2023-06-22T03:28:47;93546.69;;;19.85;77.68
57248;BME280;55809;46.618;10.764;2023-06-22T03:31:14;93555.22;;;19.87;77.83
57248;BME280;55809;46.618;10.764;2023-06-22T03:33:41;93548.16;;;19.99;77.38
57248;BME280;55809;46.618;10.764;2023-06-22T03:36:08;93564.19;;;20.01;77.47
57248;BME280;55809;46.618;10.764;2023-06-22T03:38:35;93554.88;;;19.98;78.10
57248;BME280;55809;46.618;10.764;2023-06-22T03:41:02;93555.28;;;19.97;77.89
57248;BME280;55809;46.618;10.764;2023-06-22T03:43:29;93556.06;;;19.97;78.08
57248;BME280;55809;46.618;10.764;2023-06-22T03:45:58;93554.66;;;19.92;78.17
57248;BME280;55809;46.618;10.764;2023-06-22T03:48:25;93566.25;;;19.97;78.58
57248;BME280;55809;46.618;10.764;2023-06-22T03:50:52;93555.75;;;19.95;78.84
57248;BME280;55809;46.618;10.764;2023-06-22T03:53:19;93557.28;;;19.96;78.12
57248;BME280;55809;46.618;10.764;2023-06-22T03:55:48;93521.16;;;19.76;78.34
57248;BME280;55809;46.618;10.764;2023-06-22T03:58:16;93553.00;;;19.95;78.97
57248;BME280;55809;46.618;10.764;2023-06-22T04:00:44;93551.50;;;19.94;79.54
57248;BME280;55809;46.618;10.764;2023-06-22T04:03:13;93551.78;;;19.96;79.74
57248;BME280;55809;46.618;10.764;2023-06-22T04:05:40;93548.75;;;19.94;80.11
57248;BME280;55809;46.618;10.764;2023-06-22T04:08:08;93547.84;;;19.97;80.13
57248;BME280;55809;46.618;10.764;2023-06-22T04:10:35;93546.66;;;19.98;80.52
57248;BME280;55809;46.618;10.764;2023-06-22T04:13:02;93548.28;;;19.96;80.99
57248;BME280;55809;46.618;10.764;2023-06-22T04:15:29;93548.94;;;20.00;80.16
57248;BME280;55809;46.618;10.764;2023-06-22T04:17:56;93544.88;;;20.04;80.06
57248;BME280;55809;46.618;10.764;2023-06-22T04:20:25;93551.00;;;20.08;78.54
57248;BME280;55809;46.618;10.764;2023-06-22T04:22:52;93538.81;;;20.09;79.23
57248;BME280;55809;46.618;10.764;2023-06-22T04:25:20;93550.53;;;20.10;78.46
57248;BME280;55809;46.618;10.764;2023-06-22T04:27:47;93547.66;;;20.13;77.76
57248;BME280;55809;46.618;10.764;2023-06-22T04:30:15;93543.75;;;20.14;77.28
57248;BME280;55809;46.618;10.764;2023-06-22T04:32:43;93523.84;;;20.01;76.96
57248;BME280;55809;46.618;10.764;2023-06-22T04:35:10;93545.47;;;20.21;76.74
57248;BME280;55809;46.618;10.764;2023-06-22T04:37:38;93495.97;;;20.03;76.50
57248;BME280;55809;46.618;10.764;2023-06-22T04:40:06;93530.63;;;20.31;76.56
57248;BME280;55809;46.618;10.764;2023-06-22T04:42:34;93533.47;;;20.28;76.66
57248;BME280;55809;46.618;10.764;2023-06-22T04:45:02;93524.84;;;20.17;76.58
57248;BME280;55809;46.618;10.764;2023-06-22T04:47:30;93477.94;;;19.92;76.01
57248;BME280;55809;46.618;10.764;2023-06-22T04:49:57;93527.09;;;20.31;75.12
57248;BME280;55809;46.618;10.764;2023-06-22T04:52:24;93522.59;;;20.37;75.56
57248;BME280;55809;46.618;10.764;2023-06-22T04:54:53;93524.88;;;20.38;75.15
57248;BME280;55809;46.618;10.764;2023-06-22T04:57:25;93509.38;;;20.23;75.69
57248;BME280;55809;46.618;10.764;2023-06-22T04:59:57;93508.94;;;20.24;75.71
57248;BME280;55809;46.618;10.764;2023-06-22T05:02:36;93534.44;;;20.34;76.49
57248;BME280;55809;46.618;10.764;2023-06-22T05:05:04;93542.22;;;20.35;76.43
57248;BME280;55809;46.618;10.764;2023-06-22T05:07:33;93537.19;;;20.34;76.63
57248;BME280;55809;46.618;10.764;2023-06-22T05:10:02;93533.56;;;20.37;76.34
57248;BME280;55809;46.618;10.764;2023-06-22T05:12:30;93542.53;;;20.37;76.83
57248;BME280;55809;46.618;10.764;2023-06-22T05:14:57;93531.69;;;20.34;76.39
57248;BME280;55809;46.618;10.764;2023-06-22T05:17:24;93533.78;;;20.30;75.65
57248;BME280;55809;46.618;10.764;2023-06-22T05:19:51;93504.06;;;20.06;75.80
57248;BME280;55809;46.618;10.764;2023-06-22T05:22:18;93509.63;;;20.15;75.86
57248;BME280;55809;46.618;10.764;2023-06-22T05:24:46;93472.06;;;20.03;76.21
57248;BME280;55809;46.618;10.764;2023-06-22T05:27:14;93487.00;;;20.24;76.23
57248;BME280;55809;46.618;10.764;2023-06-22T05:29:42;93499.38;;;20.29;76.89
57248;BME280;55809;46.618;10.764;2023-06-22T05:32:09;93479.47;;;20.15;77.41
57248;BME280;55809;46.618;10.764;2023-06-22T05:34:36;93504.28;;;20.34;76.69
57248;BME280;55809;46.618;10.764;2023-06-22T05:37:04;93521.25;;;20.42;77.38
57248;BME280;55809;46.618;10.764;2023-06-22T05:39:31;93512.88;;;20.23;77.92
57248;BME280;55809;46.618;10.764;2023-06-22T05:41:58;93460.53;;;19.86;78.20
57248;BME280;55809;46.618;10.764;2023-06-22T05:44:27;93512.81;;;20.14;78.59
57248;BME280;55809;46.618;10.764;2023-06-22T05:46:54;93521.88;;;20.24;78.75
57248;BME280;55809;46.618;10.764;2023-06-22T05:49:21;93512.06;;;20.35;77.49
57248;BME280;55809;46.618;10.764;2023-06-22T05:51:50;93528.56;;;20.45;76.64
57248;BME280;55809;46.618;10.764;2023-06-22T05:54:17;93519.53;;;20.35;76.83
57248;BME280;55809;46.618;10.764;2023-06-22T05:56:44;93489.03;;;20.33;79.28
57248;BME280;55809;46.618;10.764;2023-06-22T05:59:11;93467.19;;;19.98;80.04
57248;BME280;55809;46.618;10.764;2023-06-22T06:01:40;93523.84;;;20.23;78.52
57248;BME280;55809;46.618;10.764;2023-06-22T06:04:07;93512.69;;;20.18;78.75
57248;BME280;55809;46.618;10.764;2023-06-22T06:06:34;93531.16;;;20.26;77.47
57248;BME280;55809;46.618;10.764;2023-06-22T06:09:03;93523.34;;;20.15;77.36
57248;BME280;55809;46.618;10.764;2023-06-22T06:11:30;93543.28;;;20.16;76.75
57248;BME280;55809;46.618;10.764;2023-06-22T06:13:57;93561.31;;;20.26;76.01
57248;BME280;55809;46.618;10.764;2023-06-22T06:16:26;93566.38;;;20.28;75.66
57248;BME280;55809;46.618;10.764;2023-06-22T06:18:56;93564.44;;;20.15;76.80
57248;BME280;55809;46.618;10.764;2023-06-22T06:21:25;93569.09;;;20.06;77.18
57248;BME280;55809;46.618;10.764;2023-06-22T06:23:54;93548.81;;;20.03;77.64
57248;BME280;55809;46.618;10.764;2023-06-22T06:26:22;93552.50;;;20.09;77.26
57248;BME280;55809;46.618;10.764;2023-06-22T06:28:55;93545.75;;;20.23;76.68
57248;BME280;55809;46.618;10.764;2023-06-22T06:31:24;93536.72;;;20.35;76.38
57248;BME280;55809;46.618;10.764;2023-06-22T06:33:55;93533.84;;;20.39;76.73
57248;BME280;55809;46.618;10.764;2023-06-22T06:36:22;93520.97;;;20.49;75.96
57248;BME280;55809;46.618;10.764;2023-06-22T06:38:49;93526.56;;;20.58;75.69
57248;BME280;55809;46.618;10.764;2023-06-22T06:41:19;93530.09;;;20.46;75.05
57248;BME280;55809;46.618;10.764;2023-06-22T06:43:54;93555.88;;;20.48;75.40
57248;BME280;55809;46.618;10.764;2023-06-22T06:46:21;93550.31;;;20.39;76.95
57248;BME280;55809;46.618;10.764;2023-06-22T06:48:52;93530.81;;;20.37;78.66
57248;BME280;55809;46.618;10.764;2023-06-22T06:51:25;93540.69;;;20.34;78.95
57248;BME280;55809;46.618;10.764;2023-06-22T06:53:54;93558.88;;;20.41;77.75
57248;BME280;55809;46.618;10.764;2023-06-22T06:56:23;93555.38;;;20.63;77.62
57248;BME280;55809;46.618;10.764;2023-06-22T06:58:51;93548.44;;;20.71;77.01
57248;BME280;55809;46.618;10.764;2023-06-22T07:01:19;93555.31;;;20.75;77.49
57248;BME280;55809;46.618;10.764;2023-06-22T07:03:47;93559.13;;;20.78;78.24
57248;BME280;55809;46.618;10.764;2023-06-22T07:06:16;93560.38;;;20.86;76.93
57248;BME280;55809;46.618;10.764;2023-06-22T07:08:46;93561.66;;;20.94;77.20
57248;BME280;55809;46.618;10.764;2023-06-22T07:11:15;93557.75;;;21.04;75.94
57248;BME280;55809;46.618;10.764;2023-06-22T07:13:43;93566.03;;;21.14;75.21
57248;BME280;55809;46.618;10.764;2023-06-22T07:16:11;93561.78;;;21.13;75.14
57248;BME280;55809;46.618;10.764;2023-06-22T07:18:39;93549.50;;;21.04;75.83
57248;BME280;55809;46.618;10.764;2023-06-22T07:21:08;93540.16;;;20.93;76.17
57248;BME280;55809;46.618;10.764;2023-06-22T07:23:36;93545.06;;;20.98;76.50
57248;BME280;55809;46.618;10.764;2023-06-22T07:26:06;93532.09;;;20.98;76.57
57248;BME280;55809;46.618;10.764;2023-06-22T07:28:38;93531.81;;;20.96;79.14
57248;BME280;55809;46.618;10.764;2023-06-22T07:31:06;93531.00;;;20.96;78.96
57248;BME280;55809;46.618;10.764;2023-06-22T07:33:38;93526.84;;;20.82;79.75
57248;BME280;55809;46.618;10.764;2023-06-22T07:36:06;93522.38;;;20.75;80.33
57248;BME280;55809;46.618;10.764;2023-06-22T07:38:34;93512.16;;;20.76;79.13
57248;BME280;55809;46.618;10.764;2023-06-22T07:41:03;93486.16;;;20.58;78.82
57248;BME280;55809;46.618;10.764;2023-06-22T07:43:35;93467.59;;;20.63;79.91
57248;BME280;55809;46.618;10.764;2023-06-22T07:46:02;93452.69;;;20.64;80.58
57248;BME280;55809;46.618;10.764;2023-06-22T07:48:31;93452.22;;;20.65;81.99
57248;BME280;55809;46.618;10.764;2023-06-22T07:50:59;93456.06;;;20.68;82.92
57248;BME280;55809;46.618;10.764;2023-06-22T07:53:27;93443.16;;;20.77;81.73
57248;BME280;55809;46.618;10.764;2023-06-22T07:55:56;93449.63;;;20.93;80.40
57248;BME280;55809;46.618;10.764;2023-06-22T07:58:24;93466.28;;;21.07;79.07
57248;BME280;55809;46.618;10.764;2023-06-22T08:00:55;93481.38;;;21.12;78.79
57248;BME280;55809;46.618;10.764;2023-06-22T08:03:24;93488.84;;;21.12;80.06
57248;BME280;55809;46.618;10.764;2023-06-22T08:05:55;93488.44;;;21.22;80.41
57248;BME280;55809;46.618;10.764;2023-06-22T08:08:24;93476.91;;;21.37;78.36
57248;BME280;55809;46.618;10.764;2023-06-22T08:10:52;93481.38;;;21.62;76.90
57248;BME280;55809;46.618;10.764;2023-06-22T08:13:19;93489.63;;;21.71;77.23
57248;BME280;55809;46.618;10.764;2023-06-22T08:15:47;93479.28;;;21.93;76.49
57248;BME280;55809;46.618;10.764;2023-06-22T08:18:16;93475.16;;;22.16;75.43
57248;BME280;55809;46.618;10.764;2023-06-22T08:20:45;93473.00;;;22.39;75.80
57248;BME280;55809;46.618;10.764;2023-06-22T08:23:13;93463.03;;;22.51;74.95
57248;BME280;55809;46.618;10.764;2023-06-22T08:25:41;93464.41;;;22.64;74.64
57248;BME280;55809;46.618;10.764;2023-06-22T08:28:12;93469.38;;;22.84;73.81
57248;BME280;55809;46.618;10.764;2023-06-22T08:30:41;93462.91;;;23.06;73.73
57248;BME280;55809;46.618;10.764;2023-06-22T08:33:08;93458.66;;;23.29;72.55
57248;BME280;55809;46.618;10.764;2023-06-22T08:35:38;93465.47;;;23.42;70.95
57248;BME280;55809;46.618;10.764;2023-06-22T08:38:06;93462.84;;;23.48;70.55
57248;BME280;55809;46.618;10.764;2023-06-22T08:40:36;93463.28;;;23.80;69.41
57248;BME280;55809;46.618;10.764;2023-06-22T08:43:05;93462.09;;;23.96;71.20
57248;BME280;55809;46.618;10.764;2023-06-22T08:45:33;93456.41;;;23.99;69.68
57248;BME280;55809;46.618;10.764;2023-06-22T08:48:00;93465.69;;;24.02;68.77
57248;BME280;55809;46.618;10.764;2023-06-22T08:50:29;93438.56;;;23.85;68.72
57248;BME280;55809;46.618;10.764;2023-06-22T08:52:59;93443.06;;;23.98;68.61
57248;BME280;55809;46.618;10.764;2023-06-22T08:55:28;93449.31;;;24.37;67.60
57248;BME280;55809;46.618;10.764;2023-06-22T08:57:56;93442.41;;;24.71;65.93
57248;BME280;55809;46.618;10.764;2023-06-22T09:00:25;93435.97;;;25.24;63.04
57248;BME280;55809;46.618;10.764;2023-06-22T09:03:02;93426.31;;;25.76;60.33
57248;BME280;55809;46.618;10.764;2023-06-22T09:05:31;93429.63;;;25.80;61.45
57248;BME280;55809;46.618;10.764;2023-06-22T09:08:02;93424.94;;;25.86;60.68
57248;BME280;55809;46.618;10.764;2023-06-22T09:10:30;93422.75;;;25.90;60.84
57248;BME280;55809;46.618;10.764;2023-06-22T09:12:59;93422.56;;;25.79;60.53
57248;BME280;55809;46.618;10.764;2023-06-22T09:15:26;93424.47;;;25.67;60.89
57248;BME280;55809;46.618;10.764;2023-06-22T09:17:53;93413.31;;;25.61;61.53
57248;BME280;55809;46.618;10.764;2023-06-22T09:20:21;93413.38;;;25.46;62.32
57248;BME280;55809;46.618;10.764;2023-06-22T09:22:48;93404.63;;;25.48;61.60
57248;BME280;55809;46.618;10.764;2023-06-22T09:25:17;93399.75;;;25.43;60.72
57248;BME280;55809;46.618;10.764;2023-06-22T09:27:46;93402.38;;;25.32;61.37
57248;BME280;55809;46.618;10.764;2023-06-22T09:30:13;93397.75;;;25.23;60.42
57248;BME280;55809;46.618;10.764;2023-06-22T09:32:40;93397.19;;;25.19;60.65
57248;BME280;55809;46.618;10.764;2023-06-22T09:35:09;93396.16;;;25.16;60.62
57248;BME280;55809;46.618;10.764;2023-06-22T09:37:38;93386.63;;;25.02;62.26
57248;BME280;55809;46.618;10.764;2023-06-22T09:40:07;93388.06;;;25.13;62.77
57248;BME280;55809;46.618;10.764;2023-06-22T09:42:38;93389.56;;;25.14;62.46
57248;BME280;55809;46.618;10.764;2023-06-22T09:45:06;93368.34;;;25.40;62.05
57248;BME280;55809;46.618;10.764;2023-06-22T09:47:37;93366.28;;;26.02;61.34
57248;BME280;55809;46.618;10.764;2023-06-22T09:50:06;93382.44;;;26.93;57.33
57248;BME280;55809;46.618;10.764;2023-06-22T09:52:38;93369.91;;;27.41;56.89
57248;BME280;55809;46.618;10.764;2023-06-22T09:55:08;93364.34;;;27.95;55.04
57248;BME280;55809;46.618;10.764;2023-06-22T09:57:38;93363.59;;;28.05;53.02
57248;BME280;55809;46.618;10.764;2023-06-22T10:00:07;93359.31;;;27.99;51.97
57248;BME280;55809;46.618;10.764;2023-06-22T10:02:39;93355.66;;;27.65;51.45
57248;BME280;55809;46.618;10.764;2023-06-22T10:05:08;93359.66;;;27.58;53.08
57248;BME280;55809;46.618;10.764;2023-06-22T10:07:37;93357.44;;;27.68;52.59
57248;BME280;55809;46.618;10.764;2023-06-22T10:10:10;93357.78;;;27.92;51.10
57248;BME280;55809;46.618;10.764;2023-06-22T10:12:56;93357.28;;;27.88;51.12
57248;BME280;55809;46.618;10.764;2023-06-22T10:15:25;93354.00;;;27.95;51.98
57248;BME280;55809;46.618;10.764;2023-06-22T10:17:53;93336.25;;;27.65;53.17
57248;BME280;55809;46.618;10.764;2023-06-22T10:20:22;93328.06;;;27.39;53.14
57248;BME280;55809;46.618;10.764;2023-06-22T10:22:51;93340.59;;;27.23;54.07
57248;BME280;55809;46.618;10.764;2023-06-22T10:25:20;93339.22;;;27.07;54.62
57248;BME280;55809;46.618;10.764;2023-06-22T10:28:03;93326.34;;;27.04;55.25
57248;BME280;55809;46.618;10.764;2023-06-22T10:30:30;93329.00;;;27.24;54.65
57248;BME280;55809;46.618;10.764;2023-06-22T10:32:58;93336.38;;;27.39;53.71
57248;BME280;55809;46.618;10.764;2023-06-22T10:35:24;93331.63;;;27.50;54.22
57248;BME280;55809;46.618;10.764;2023-06-22T10:37:52;93330.41;;;27.63;51.89
57248;BME280;55809;46.618;10.764;2023-06-22T10:40:20;93322.94;;;27.80;55.62
57248;BME280;55809;46.618;10.764;2023-06-22T10:42:47;93320.97;;;28.09;56.06
57248;BME280;55809;46.618;10.764;2023-06-22T10:45:17;93318.22;;;28.14;54.80
57248;BME280;55809;46.618;10.764;2023-06-22T10:47:44;93310.41;;;28.18;56.44
57248;BME280;55809;46.618;10.764;2023-06-22T10:50:11;93296.28;;;28.11;53.40
57248;BME280;55809;46.618;10.764;2023-06-22T10:52:41;93297.28;;;28.24;55.39
57248;BME280;55809;46.618;10.764;2023-06-22T10:55:08;93286.94;;;28.25;55.01
57248;BME280;55809;46.618;10.764;2023-06-22T10:57:35;93281.63;;;28.38;53.38
57248;BME280;55809;46.618;10.764;2023-06-22T11:00:05;93272.28;;;28.13;53.26
57248;BME280;55809;46.618;10.764;2023-06-22T11:02:35;93266.44;;;27.83;52.10
57248;BME280;55809;46.618;10.764;2023-06-22T11:05:03;93273.56;;;28.01;52.54
57248;BME280;55809;46.618;10.764;2023-06-22T11:07:30;93280.09;;;27.98;53.87
57248;BME280;55809;46.618;10.764;2023-06-22T11:09:58;93274.81;;;27.94;54.07
57248;BME280;55809;46.618;10.764;2023-06-22T11:12:25;93274.78;;;27.83;54.61
57248;BME280;55809;46.618;10.764;2023-06-22T11:14:52;93272.44;;;27.70;53.73
57248;BME280;55809;46.618;10.764;2023-06-22T11:17:19;93263.06;;;27.45;54.22
57248;BME280;55809;46.618;10.764;2023-06-22T11:19:47;93266.09;;;27.47;52.61
57248;BME280;55809;46.618;10.764;2023-06-22T11:22:14;93256.78;;;27.45;53.60
57248;BME280;55809;46.618;10.764;2023-06-22T11:24:41;93254.94;;;27.30;54.62
57248;BME280;55809;46.618;10.764;2023-06-22T11:27:08;93211.84;;;27.18;53.82
57248;BME280;55809;46.618;10.764;2023-06-22T11:29:35;93220.91;;;27.24;55.51
57248;BME280;55809;46.618;10.764;2023-06-22T11:32:06;93220.91;;;27.24;57.28
57248;BME280;55809;46.618;10.764;2023-06-22T11:34:33;93224.50;;;27.42;55.67
57248;BME280;55809;46.618;10.764;2023-06-22T11:37:02;93224.75;;;27.38;57.03
57248;BME280;55809;46.618;10.764;2023-06-22T11:39:29;93181.72;;;26.88;56.63
57248;BME280;55809;46.618;10.764;2023-06-22T11:41:56;93212.72;;;26.98;57.43
57248;BME280;55809;46.618;10.764;2023-06-22T11:44:24;93202.50;;;26.67;54.51
57248;BME280;55809;46.618;10.764;2023-06-22T11:46:51;93196.75;;;26.71;58.23
57248;BME280;55809;46.618;10.764;2023-06-22T11:49:18;93185.38;;;26.63;57.92
57248;BME280;55809;46.618;10.764;2023-06-22T11:51:45;93190.00;;;26.83;59.66
57248;BME280;55809;46.618;10.764;2023-06-22T11:54:13;93179.94;;;26.85;60.88
57248;BME280;55809;46.618;10.764;2023-06-22T11:56:40;93180.91;;;26.77;61.00
57248;BME280;55809;46.618;10.764;2023-06-22T11:59:07;93175.63;;;26.73;60.47
57248;BME280;55809;46.618;10.764;2023-06-22T12:01:35;93174.81;;;26.67;60.74
57248;BME280;55809;46.618;10.764;2023-06-22T12:04:03;93173.31;;;26.72;59.81
57248;BME280;55809;46.618;10.764;2023-06-22T12:06:31;93150.63;;;26.62;59.11
57248;BME280;55809;46.618;10.764;2023-06-22T12:08:58;93174.41;;;26.91;60.21
57248;BME280;55809;46.618;10.764;2023-06-22T12:11:27;93157.94;;;26.59;57.24
57248;BME280;55809;46.618;10.764;2023-06-22T12:13:54;93163.25;;;26.69;61.73
57248;BME280;55809;46.618;10.764;2023-06-22T12:16:21;93166.28;;;26.71;59.76
57248;BME280;55809;46.618;10.764;2023-06-22T12:18:49;93165.59;;;26.87;58.02
57248;BME280;55809;46.618;10.764;2023-06-22T12:21:17;93149.78;;;27.04;59.49
57248;BME280;55809;46.618;10.764;2023-06-22T12:23:44;93138.69;;;26.99;58.46
57248;BME280;55809;46.618;10.764;2023-06-22T12:26:11;93139.44;;;26.94;60.17
57248;BME280;55809;46.618;10.764;2023-06-22T12:28:40;93132.09;;;26.79;60.59
57248;BME280;55809;46.618;10.764;2023-06-22T12:31:07;93138.94;;;26.95;61.32
57248;BME280;55809;46.618;10.764;2023-06-22T12:33:34;93128.63;;;26.96;60.25
57248;BME280;55809;46.618;10.764;2023-06-22T12:36:01;93131.09;;;26.88;60.47
57248;BME280;55809;46.618;10.764;2023-06-22T12:38:30;93099.19;;;26.44;58.57
57248;BME280;55809;46.618;10.764;2023-06-22T12:40:57;93124.72;;;26.65;58.34
57248;BME280;55809;46.618;10.764;2023-06-22T12:43:24;93123.66;;;26.51;58.61
57248;BME280;55809;46.618;10.764;2023-06-22T12:45:53;93121.88;;;26.48;57.27
57248;BME280;55809;46.618;10.764;2023-06-22T12:48:22;93120.34;;;26.47;58.65
57248;BME280;55809;46.618;10.764;2023-06-22T12:50:50;93116.66;;;26.56;57.36
57248;BME280;55809;46.618;10.764;2023-06-22T12:53:17;93113.56;;;26.48;58.10
57248;BME280;55809;46.618;10.764;2023-06-22T12:55:44;93100.94;;;26.36;59.73